sensor_id;sensor_type;location;lat;lon;timestamp;temperature;humidity
14401;DHT22;7285;50.894;5.462;2022-12-07T00:00:03;4.70;29.00
14401;DHT22;7285;50.894;5.462;2022-12-07T00:02:31;4.70;99.90
14401;DHT22;7285;50.894;5.462;2022-12-07T00:04:59;4.70;99.90
14401;DHT22;7285;50.894;5.462;2022-12-07T00:07:26;4.70;99.90
14401;DHT22;7285;50.894;5.462;2022-12-07T00:09:52;4.70;99.90
14401;DHT22;7285;50.894;5.462;2022-12-07T00:12:19;4.60;99.90
14401;DHT22;7285;50.894;5.462;2022-12-07T00:14:46;4.60;99.90
14401;DHT22;7285;50.894;5.462;2022-12-07T00:17:13;4.60;99.90
14401;DHT22;7285;50.894;5.462;2022-12-07T00:19:40;4.50;99.90
14401;DHT22;7285;50.894;5.462;2022-12-07T00:22:08;4.50;99.90
14401;DHT22;7285;50.894;5.462;2022-12-07T00:24:35;4.50;99.90
14401;DHT22;7285;50.894;5.462;2022-12-07T00:27:02;4.50;1.00
14401;DHT22;7285;50.894;5.462;2022-12-07T00:29:29;4.50;1.00
14401;DHT22;7285;50.894;5.462;2022-12-07T00:31:56;4.50;1.00
14401;DHT22;7285;50.894;5.462;2022-12-07T00:34:23;4.50;1.00
14401;DHT22;7285;50.894;5.462;2022-12-07T00:36:50;4.50;1.00
14401;DHT22;7285;50.894;5.462;2022-12-07T00:39:18;4.40;1.00
14401;DHT22;7285;50.894;5.462;2022-12-07T00:41:45;4.50;1.00
14401;DHT22;7285;50.894;5.462;2022-12-07T00:44:12;4.40;1.00
14401;DHT22;7285;50.894;5.462;2022-12-07T00:46:39;4.30;1.00
14401;DHT22;7285;50.894;5.462;2022-12-07T00:49:06;4.30;1.00
14401;DHT22;7285;50.894;5.462;2022-12-07T00:51:33;4.20;1.00
14401;DHT22;7285;50.894;5.462;2022-12-07T00:54:00;4.20;1.00
14401;DHT22;7285;50.894;5.462;2022-12-07T00:56:29;4.20;1.00
14401;DHT22;7285;50.894;5.462;2022-12-07T00:58:57;4.20;1.00
14401;DHT22;7285;50.894;5.462;2022-12-07T01:01:27;4.30;1.00
14401;DHT22;7285;50.894;5.462;2022-12-07T01:03:54;4.20;1.00
14401;DHT22;7285;50.894;5.462;2022-12-07T01:06:22;4.20;69.90
14401;DHT22;7285;50.894;5.462;2022-12-07T01:08:49;4.30;99.90
14401;DHT22;7285;50.894;5.462;2022-12-07T01:11:20;4.20;99.90
14401;DHT22;7285;50.894;5.462;2022-12-07T01:13:49;4.30;99.90
14401;DHT22;7285;50.894;5.462;2022-12-07T01:16:17;4.30;99.90
14401;DHT22;7285;50.894;5.462;2022-12-07T01:18:47;4.20;99.90
14401;DHT22;7285;50.894;5.462;2022-12-07T01:21:16;4.20;99.90
14401;DHT22;7285;50.894;5.462;2022-12-07T01:23:43;4.20;99.90
14401;DHT22;7285;50.894;5.462;2022-12-07T01:26:13;4.30;99.90
14401;DHT22;7285;50.894;5.462;2022-12-07T01:28:40;4.20;99.90
14401;DHT22;7285;50.894;5.462;2022-12-07T01:31:10;4.20;99.90
14401;DHT22;7285;50.894;5.462;2022-12-07T01:33:38;4.20;99.90
14401;DHT22;7285;50.894;5.462;2022-12-07T01:36:07;4.30;1.00
14401;DHT22;7285;50.894;5.462;2022-12-07T01:38:34;4.30;1.00
14401;DHT22;7285;50.894;5.462;2022-12-07T01:41:02;4.30;1.00
14401;DHT22;7285;50.894;5.462;2022-12-07T01:43:30;4.30;1.00
14401;DHT22;7285;50.894;5.462;2022-12-07T01:45:57;4.30;1.00
14401;DHT22;7285;50.894;5.462;2022-12-07T01:48:29;4.30;1.00
14401;DHT22;7285;50.894;5.462;2022-12-07T01:51:00;4.30;1.00
14401;DHT22;7285;50.894;5.462;2022-12-07T01:53:29;4.30;1.00
14401;DHT22;7285;50.894;5.462;2022-12-07T01:55:58;4.40;1.00
14401;DHT22;7285;50.894;5.462;2022-12-07T01:58:26;4.30;1.00
14401;DHT22;7285;50.894;5.462;2022-12-07T02:00:52;4.40;1.00
14401;DHT22;7285;50.894;5.462;2022-12-07T02:03:23;4.30;1.00
14401;DHT22;7285;50.894;5.462;2022-12-07T02:05:53;4.30;1.00
14401;DHT22;7285;50.894;5.462;2022-12-07T02:08:21;4.30;1.00
14401;DHT22;7285;50.894;5.462;2022-12-07T02:10:48;4.20;1.00
14401;DHT22;7285;50.894;5.462;2022-12-07T02:13:18;4.20;1.00
14401;DHT22;7285;50.894;5.462;2022-12-07T02:16:02;4.20;1.00
14401;DHT22;7285;50.894;5.462;2022-12-07T02:18:44;4.10;1.00
14401;DHT22;7285;50.894;5.462;2022-12-07T02:21:19;4.00;1.00
14401;DHT22;7285;50.894;5.462;2022-12-07T02:24:14;4.00;1.00
14401;DHT22;7285;50.894;5.462;2022-12-07T02:27:04;3.90;1.00
14401;DHT22;7285;50.894;5.462;2022-12-07T02:29:38;4.00;1.00
14401;DHT22;7285;50.894;5.462;2022-12-07T02:32:10;4.00;1.00
14401;DHT22;7285;50.894;5.462;2022-12-07T02:34:44;3.90;1.00
14401;DHT22;7285;50.894;5.462;2022-12-07T02:37:23;4.00;1.00
14401;DHT22;7285;50.894;5.462;2022-12-07T02:39:55;3.90;1.00
14401;DHT22;7285;50.894;5.462;2022-12-07T02:42:28;4.00;1.00
14401;DHT22;7285;50.894;5.462;2022-12-07T02:44:59;3.90;1.00
14401;DHT22;7285;50.894;5.462;2022-12-07T02:47:28;3.90;1.00
14401;DHT22;7285;50.894;5.462;2022-12-07T02:49:56;3.90;1.00
14401;DHT22;7285;50.894;5.462;2022-12-07T02:52:23;3.90;1.00
14401;DHT22;7285;50.894;5.462;2022-12-07T02:54:50;4.00;1.00
14401;DHT22;7285;50.894;5.462;2022-12-07T02:57:37;3.90;1.00
14401;DHT22;7285;50.894;5.462;2022-12-07T03:00:13;3.90;1.00
14401;DHT22;7285;50.894;5.462;2022-12-07T03:02:49;3.90;1.00
14401;DHT22;7285;50.894;5.462;2022-12-07T03:05:41;4.00;1.00
14401;DHT22;7285;50.894;5.462;2022-12-07T03:08:15;3.90;1.00
14401;DHT22;7285;50.894;5.462;2022-12-07T03:10:56;3.90;1.00
14401;DHT22;7285;50.894;5.462;2022-12-07T03:13:33;4.00;1.00
14401;DHT22;7285;50.894;5.462;2022-12-07T03:16:07;4.00;1.00
14401;DHT22;7285;50.894;5.462;2022-12-07T03:18:37;4.10;1.00
14401;DHT22;7285;50.894;5.462;2022-12-07T03:21:09;4.10;1.00
14401;DHT22;7285;50.894;5.462;2022-12-07T03:23:40;4.10;1.00
14401;DHT22;7285;50.894;5.462;2022-12-07T03:26:10;4.10;1.00
14401;DHT22;7285;50.894;5.462;2022-12-07T03:28:42;4.20;1.00
14401;DHT22;7285;50.894;5.462;2022-12-07T03:31:14;4.20;1.00
14401;DHT22;7285;50.894;5.462;2022-12-07T03:33:46;4.10;1.00
14401;DHT22;7285;50.894;5.462;2022-12-07T03:36:20;4.10;1.00
14401;DHT22;7285;50.894;5.462;2022-12-07T03:38:52;4.10;1.00
14401;DHT22;7285;50.894;5.462;2022-12-07T03:41:24;4.10;1.00
14401;DHT22;7285;50.894;5.462;2022-12-07T03:43:53;4.10;1.00
14401;DHT22;7285;50.894;5.462;2022-12-07T03:46:27;4.10;2.90
14401;DHT22;7285;50.894;5.462;2022-12-07T03:49:04;4.10;31.80
14401;DHT22;7285;50.894;5.462;2022-12-07T03:51:39;4.10;52.40
14401;DHT22;7285;50.894;5.462;2022-12-07T03:54:10;4.10;86.50
14401;DHT22;7285;50.894;5.462;2022-12-07T03:56:38;4.20;86.40
14401;DHT22;7285;50.894;5.462;2022-12-07T03:59:07;4.20;99.90
14401;DHT22;7285;50.894;5.462;2022-12-07T04:01:35;4.20;99.90
14401;DHT22;7285;50.894;5.462;2022-12-07T04:04:02;4.20;99.90
14401;DHT22;7285;50.894;5.462;2022-12-07T04:06:29;4.30;99.90
14401;DHT22;7285;50.894;5.462;2022-12-07T04:08:56;4.30;99.90
14401;DHT22;7285;50.894;5.462;2022-12-07T04:11:23;4.20;99.90
14401;DHT22;7285;50.894;5.462;2022-12-07T04:13:50;4.20;99.90
14401;DHT22;7285;50.894;5.462;2022-12-07T04:16:35;4.20;99.90
14401;DHT22;7285;50.894;5.462;2022-12-07T04:19:02;4.20;99.90
14401;DHT22;7285;50.894;5.462;2022-12-07T04:21:29;4.20;99.90
14401;DHT22;7285;50.894;5.462;2022-12-07T04:23:56;4.10;99.90
14401;DHT22;7285;50.894;5.462;2022-12-07T04:26:23;4.10;84.60
14401;DHT22;7285;50.894;5.462;2022-12-07T04:28:50;4.00;60.20
14401;DHT22;7285;50.894;5.462;2022-12-07T04:31:17;3.90;20.80
14401;DHT22;7285;50.894;5.462;2022-12-07T04:33:45;3.90;1.00
14401;DHT22;7285;50.894;5.462;2022-12-07T04:36:12;3.80;1.00
14401;DHT22;7285;50.894;5.462;2022-12-07T04:38:39;3.80;1.00
14401;DHT22;7285;50.894;5.462;2022-12-07T04:41:07;3.80;13.40
14401;DHT22;7285;50.894;5.462;2022-12-07T04:43:34;3.70;6.00
14401;DHT22;7285;50.894;5.462;2022-12-07T04:46:02;3.80;6.90
14401;DHT22;7285;50.894;5.462;2022-12-07T04:48:29;3.70;4.30
14401;DHT22;7285;50.894;5.462;2022-12-07T04:50:57;3.80;1.00
14401;DHT22;7285;50.894;5.462;2022-12-07T04:53:24;3.70;1.00
14401;DHT22;7285;50.894;5.462;2022-12-07T04:55:51;3.60;1.00
14401;DHT22;7285;50.894;5.462;2022-12-07T04:58:18;3.60;1.00
14401;DHT22;7285;50.894;5.462;2022-12-07T05:00:45;3.60;13.00
14401;DHT22;7285;50.894;5.462;2022-12-07T05:03:12;3.60;41.20
14401;DHT22;7285;50.894;5.462;2022-12-07T05:05:40;3.70;48.70
14401;DHT22;7285;50.894;5.462;2022-12-07T05:08:09;3.70;55.80
14401;DHT22;7285;50.894;5.462;2022-12-07T05:10:36;3.70;53.00
14401;DHT22;7285;50.894;5.462;2022-12-07T05:13:03;3.60;31.20
14401;DHT22;7285;50.894;5.462;2022-12-07T05:15:30;3.60;14.50
14401;DHT22;7285;50.894;5.462;2022-12-07T05:17:56;3.60;1.00
14401;DHT22;7285;50.894;5.462;2022-12-07T05:20:23;3.40;1.00
14401;DHT22;7285;50.894;5.462;2022-12-07T05:22:50;3.40;1.00
14401;DHT22;7285;50.894;5.462;2022-12-07T05:25:18;3.20;1.00
14401;DHT22;7285;50.894;5.462;2022-12-07T05:27:45;3.20;1.00
14401;DHT22;7285;50.894;5.462;2022-12-07T05:30:13;3.10;1.00
14401;DHT22;7285;50.894;5.462;2022-12-07T05:32:40;3.10;1.00
14401;DHT22;7285;50.894;5.462;2022-12-07T05:35:07;3.10;1.00
14401;DHT22;7285;50.894;5.462;2022-12-07T05:37:34;3.00;1.00
14401;DHT22;7285;50.894;5.462;2022-12-07T05:40:01;2.90;1.00
14401;DHT22;7285;50.894;5.462;2022-12-07T05:42:29;2.90;1.00
14401;DHT22;7285;50.894;5.462;2022-12-07T05:44:56;2.90;1.00
14401;DHT22;7285;50.894;5.462;2022-12-07T05:47:23;2.90;1.00
14401;DHT22;7285;50.894;5.462;2022-12-07T05:49:50;2.90;1.00
14401;DHT22;7285;50.894;5.462;2022-12-07T05:52:17;2.90;1.00
14401;DHT22;7285;50.894;5.462;2022-12-07T05:54:44;2.90;1.00
14401;DHT22;7285;50.894;5.462;2022-12-07T05:57:11;2.80;1.00
14401;DHT22;7285;50.894;5.462;2022-12-07T05:59:39;2.90;1.00
14401;DHT22;7285;50.894;5.462;2022-12-07T06:02:07;2.90;1.00
14401;DHT22;7285;50.894;5.462;2022-12-07T06:04:36;2.90;1.00
14401;DHT22;7285;50.894;5.462;2022-12-07T06:07:03;3.00;1.00
14401;DHT22;7285;50.894;5.462;2022-12-07T06:09:31;2.90;1.00
14401;DHT22;7285;50.894;5.462;2022-12-07T06:11:58;3.00;1.00
14401;DHT22;7285;50.894;5.462;2022-12-07T06:14:44;3.00;1.00
14401;DHT22;7285;50.894;5.462;2022-12-07T06:17:12;3.00;1.00
14401;DHT22;7285;50.894;5.462;2022-12-07T06:19:40;3.10;9.70
14401;DHT22;7285;50.894;5.462;2022-12-07T06:22:07;3.20;45.30
14401;DHT22;7285;50.894;5.462;2022-12-07T06:24:35;3.20;57.20
14401;DHT22;7285;50.894;5.462;2022-12-07T06:27:02;3.20;83.20
14401;DHT22;7285;50.894;5.462;2022-12-07T06:29:29;3.20;99.90
14401;DHT22;7285;50.894;5.462;2022-12-07T06:31:57;3.30;99.90
14401;DHT22;7285;50.894;5.462;2022-12-07T06:34:24;3.30;99.90
14401;DHT22;7285;50.894;5.462;2022-12-07T06:36:52;3.40;99.90
14401;DHT22;7285;50.894;5.462;2022-12-07T06:39:22;3.30;99.90
14401;DHT22;7285;50.894;5.462;2022-12-07T06:41:49;3.40;99.90
14401;DHT22;7285;50.894;5.462;2022-12-07T06:44:17;3.40;99.90
14401;DHT22;7285;50.894;5.462;2022-12-07T06:46:44;3.30;99.90
14401;DHT22;7285;50.894;5.462;2022-12-07T06:49:13;3.40;99.90
14401;DHT22;7285;50.894;5.462;2022-12-07T06:51:40;3.40;99.90
14401;DHT22;7285;50.894;5.462;2022-12-07T06:54:07;3.40;99.90
14401;DHT22;7285;50.894;5.462;2022-12-07T06:56:35;3.50;99.90
14401;DHT22;7285;50.894;5.462;2022-12-07T06:59:02;3.40;99.90
14401;DHT22;7285;50.894;5.462;2022-12-07T07:01:29;3.40;99.90
14401;DHT22;7285;50.894;5.462;2022-12-07T07:03:56;3.30;99.90
14401;DHT22;7285;50.894;5.462;2022-12-07T07:06:24;3.40;99.90
14401;DHT22;7285;50.894;5.462;2022-12-07T07:08:51;3.30;99.90
14401;DHT22;7285;50.894;5.462;2022-12-07T07:11:18;3.40;99.90
14401;DHT22;7285;50.894;5.462;2022-12-07T07:13:45;3.30;99.90
14401;DHT22;7285;50.894;5.462;2022-12-07T07:16:12;3.30;99.90
14401;DHT22;7285;50.894;5.462;2022-12-07T07:18:39;3.40;99.90
14401;DHT22;7285;50.894;5.462;2022-12-07T07:21:06;3.40;99.90
14401;DHT22;7285;50.894;5.462;2022-12-07T07:23:34;3.30;99.90
14401;DHT22;7285;50.894;5.462;2022-12-07T07:26:01;3.40;99.90
14401;DHT22;7285;50.894;5.462;2022-12-07T07:28:28;3.30;99.90
14401;DHT22;7285;50.894;5.462;2022-12-07T07:30:55;3.20;99.90
14401;DHT22;7285;50.894;5.462;2022-12-07T07:33:22;3.30;99.90
14401;DHT22;7285;50.894;5.462;2022-12-07T07:35:49;3.10;99.90
14401;DHT22;7285;50.894;5.462;2022-12-07T07:38:16;3.10;99.90
14401;DHT22;7285;50.894;5.462;2022-12-07T07:40:44;3.00;99.90
14401;DHT22;7285;50.894;5.462;2022-12-07T07:43:11;3.00;99.90
14401;DHT22;7285;50.894;5.462;2022-12-07T07:45:38;2.90;98.20
14401;DHT22;7285;50.894;5.462;2022-12-07T07:48:06;2.80;75.40
14401;DHT22;7285;50.894;5.462;2022-12-07T07:50:33;2.80;45.30
14401;DHT22;7285;50.894;5.462;2022-12-07T07:53:00;2.70;9.40
14401;DHT22;7285;50.894;5.462;2022-12-07T07:55:26;2.50;1.00
14401;DHT22;7285;50.894;5.462;2022-12-07T07:57:55;2.50;1.00
14401;DHT22;7285;50.894;5.462;2022-12-07T08:00:22;2.50;1.00
14401;DHT22;7285;50.894;5.462;2022-12-07T08:02:49;2.40;1.00
14401;DHT22;7285;50.894;5.462;2022-12-07T08:05:16;2.40;1.00
14401;DHT22;7285;50.894;5.462;2022-12-07T08:07:44;2.40;1.00
14401;DHT22;7285;50.894;5.462;2022-12-07T08:10:12;2.40;1.00
14401;DHT22;7285;50.894;5.462;2022-12-07T08:12:40;2.40;1.00
14401;DHT22;7285;50.894;5.462;2022-12-07T08:15:30;2.40;1.00
14401;DHT22;7285;50.894;5.462;2022-12-07T08:17:57;2.30;1.00
14401;DHT22;7285;50.894;5.462;2022-12-07T08:20:24;2.20;1.00
14401;DHT22;7285;50.894;5.462;2022-12-07T08:22:51;2.20;1.00
14401;DHT22;7285;50.894;5.462;2022-12-07T08:25:18;2.20;1.00
14401;DHT22;7285;50.894;5.462;2022-12-07T08:27:45;2.30;1.00
14401;DHT22;7285;50.894;5.462;2022-12-07T08:30:12;2.30;1.00
14401;DHT22;7285;50.894;5.462;2022-12-07T08:32:41;2.40;1.00
14401;DHT22;7285;50.894;5.462;2022-12-07T08:35:08;2.30;1.00
14401;DHT22;7285;50.894;5.462;2022-12-07T08:37:35;2.40;1.00
14401;DHT22;7285;50.894;5.462;2022-12-07T08:40:02;2.30;1.00
14401;DHT22;7285;50.894;5.462;2022-12-07T08:42:29;2.40;1.00
14401;DHT22;7285;50.894;5.462;2022-12-07T08:45:04;2.50;1.00
14401;DHT22;7285;50.894;5.462;2022-12-07T08:47:32;2.60;27.90
14401;DHT22;7285;50.894;5.462;2022-12-07T08:50:01;2.80;95.80
14401;DHT22;7285;50.894;5.462;2022-12-07T08:52:29;2.90;99.90
14401;DHT22;7285;50.894;5.462;2022-12-07T08:54:56;2.90;99.90
14401;DHT22;7285;50.894;5.462;2022-12-07T08:57:24;3.10;99.90
14401;DHT22;7285;50.894;5.462;2022-12-07T08:59:51;3.10;99.90
14401;DHT22;7285;50.894;5.462;2022-12-07T09:02:18;3.30;99.90
14401;DHT22;7285;50.894;5.462;2022-12-07T09:04:45;3.40;99.90
14401;DHT22;7285;50.894;5.462;2022-12-07T09:07:13;3.50;99.90
14401;DHT22;7285;50.894;5.462;2022-12-07T09:09:40;3.60;99.90
14401;DHT22;7285;50.894;5.462;2022-12-07T09:12:07;3.70;99.90
14401;DHT22;7285;50.894;5.462;2022-12-07T09:14:34;3.90;99.90
14401;DHT22;7285;50.894;5.462;2022-12-07T09:17:06;3.80;99.90
14401;DHT22;7285;50.894;5.462;2022-12-07T09:19:33;3.90;99.90
14401;DHT22;7285;50.894;5.462;2022-12-07T09:22:00;3.90;99.90
14401;DHT22;7285;50.894;5.462;2022-12-07T09:24:28;3.90;99.90
14401;DHT22;7285;50.894;5.462;2022-12-07T09:26:55;4.00;99.90
14401;DHT22;7285;50.894;5.462;2022-12-07T09:29:22;3.90;99.90
14401;DHT22;7285;50.894;5.462;2022-12-07T09:31:49;4.00;99.90
14401;DHT22;7285;50.894;5.462;2022-12-07T09:34:16;3.90;99.90
14401;DHT22;7285;50.894;5.462;2022-12-07T09:36:43;3.90;99.90
14401;DHT22;7285;50.894;5.462;2022-12-07T09:39:10;4.00;99.90
14401;DHT22;7285;50.894;5.462;2022-12-07T09:41:40;4.20;99.90
14401;DHT22;7285;50.894;5.462;2022-12-07T09:44:12;4.30;99.90
14401;DHT22;7285;50.894;5.462;2022-12-07T09:46:41;4.40;99.90
14401;DHT22;7285;50.894;5.462;2022-12-07T09:49:12;4.60;99.90
14401;DHT22;7285;50.894;5.462;2022-12-07T09:51:41;4.80;99.90
14401;DHT22;7285;50.894;5.462;2022-12-07T09:54:09;4.80;99.90
14401;DHT22;7285;50.894;5.462;2022-12-07T09:56:40;4.90;99.90
14401;DHT22;7285;50.894;5.462;2022-12-07T09:59:13;5.00;99.90
14401;DHT22;7285;50.894;5.462;2022-12-07T10:01:42;5.10;59.20
14401;DHT22;7285;50.894;5.462;2022-12-07T10:04:12;5.00;1.00
14401;DHT22;7285;50.894;5.462;2022-12-07T10:06:42;5.10;1.00
14401;DHT22;7285;50.894;5.462;2022-12-07T10:09:10;5.20;1.00
14401;DHT22;7285;50.894;5.462;2022-12-07T10:12:00;5.30;1.00
14401;DHT22;7285;50.894;5.462;2022-12-07T10:14:29;5.30;1.00
14401;DHT22;7285;50.894;5.462;2022-12-07T10:16:56;5.40;1.00
14401;DHT22;7285;50.894;5.462;2022-12-07T10:19:25;5.40;1.00
14401;DHT22;7285;50.894;5.462;2022-12-07T10:22:09;5.50;99.90
14401;DHT22;7285;50.894;5.462;2022-12-07T10:24:38;5.40;99.90
14401;DHT22;7285;50.894;5.462;2022-12-07T10:27:18;5.40;21.80
14401;DHT22;7285;50.894;5.462;2022-12-07T10:29:49;5.50;11.20
14401;DHT22;7285;50.894;5.462;2022-12-07T10:32:37;5.60;33.30
14401;DHT22;7285;50.894;5.462;2022-12-07T10:35:23;5.80;1.00
14401;DHT22;7285;50.894;5.462;2022-12-07T10:37:51;5.90;1.00
14401;DHT22;7285;50.894;5.462;2022-12-07T10:40:26;6.10;1.00
14401;DHT22;7285;50.894;5.462;2022-12-07T10:43:18;6.30;99.90
14401;DHT22;7285;50.894;5.462;2022-12-07T10:46:14;6.30;1.00
14401;DHT22;7285;50.894;5.462;2022-12-07T10:48:50;6.20;99.90
14401;DHT22;7285;50.894;5.462;2022-12-07T10:51:27;6.20;1.00
14401;DHT22;7285;50.894;5.462;2022-12-07T10:54:07;6.10;92.90
14401;DHT22;7285;50.894;5.462;2022-12-07T10:56:58;6.10;1.00
14401;DHT22;7285;50.894;5.462;2022-12-07T10:59:44;6.10;1.00
14401;DHT22;7285;50.894;5.462;2022-12-07T11:02:25;6.10;1.00
14401;DHT22;7285;50.894;5.462;2022-12-07T11:05:06;6.00;1.00
14401;DHT22;7285;50.894;5.462;2022-12-07T11:07:43;6.00;1.00
14401;DHT22;7285;50.894;5.462;2022-12-07T11:10:17;6.00;1.00
14401;DHT22;7285;50.894;5.462;2022-12-07T11:12:57;6.00;1.00
14401;DHT22;7285;50.894;5.462;2022-12-07T11:15:36;6.00;1.00
14401;DHT22;7285;50.894;5.462;2022-12-07T11:18:13;6.00;1.00
14401;DHT22;7285;50.894;5.462;2022-12-07T11:20:47;6.10;1.00
14401;DHT22;7285;50.894;5.462;2022-12-07T11:23:23;6.10;1.00
14401;DHT22;7285;50.894;5.462;2022-12-07T11:25:56;6.20;1.00
14401;DHT22;7285;50.894;5.462;2022-12-07T11:28:38;6.20;99.90
14401;DHT22;7285;50.894;5.462;2022-12-07T11:31:13;6.20;99.90
14401;DHT22;7285;50.894;5.462;2022-12-07T11:33:47;6.60;99.90
14401;DHT22;7285;50.894;5.462;2022-12-07T11:36:29;6.60;99.90
14401;DHT22;7285;50.894;5.462;2022-12-07T11:39:00;6.40;1.00
14401;DHT22;7285;50.894;5.462;2022-12-07T11:41:31;6.40;1.00
14401;DHT22;7285;50.894;5.462;2022-12-07T11:44:02;6.30;1.00
14401;DHT22;7285;50.894;5.462;2022-12-07T11:46:43;6.40;1.00
14401;DHT22;7285;50.894;5.462;2022-12-07T11:49:17;6.40;1.00
14401;DHT22;7285;50.894;5.462;2022-12-07T11:51:48;6.40;1.00
14401;DHT22;7285;50.894;5.462;2022-12-07T11:54:21;6.40;1.00
14401;DHT22;7285;50.894;5.462;2022-12-07T11:56:51;6.60;1.00
14401;DHT22;7285;50.894;5.462;2022-12-07T11:59:25;6.60;99.90
14401;DHT22;7285;50.894;5.462;2022-12-07T12:01:57;6.60;1.00
14401;DHT22;7285;50.894;5.462;2022-12-07T12:04:32;6.70;3.80
14401;DHT22;7285;50.894;5.462;2022-12-07T12:07:01;6.70;17.60
14401;DHT22;7285;50.894;5.462;2022-12-07T12:09:31;6.60;1.00
14401;DHT22;7285;50.894;5.462;2022-12-07T12:12:19;6.60;1.00
14401;DHT22;7285;50.894;5.462;2022-12-07T12:15:01;6.70;1.00
14401;DHT22;7285;50.894;5.462;2022-12-07T12:18:07;6.70;1.00
14401;DHT22;7285;50.894;5.462;2022-12-07T12:20:40;6.80;99.90
14401;DHT22;7285;50.894;5.462;2022-12-07T12:23:13;6.70;99.90
14401;DHT22;7285;50.894;5.462;2022-12-07T12:25:44;6.80;1.00
14401;DHT22;7285;50.894;5.462;2022-12-07T12:28:29;6.80;1.00
14401;DHT22;7285;50.894;5.462;2022-12-07T12:31:09;6.80;1.00
14401;DHT22;7285;50.894;5.462;2022-12-07T12:33:42;6.80;99.90
14401;DHT22;7285;50.894;5.462;2022-12-07T12:36:23;6.80;99.90
14401;DHT22;7285;50.894;5.462;2022-12-07T12:39:07;6.70;49.20
14401;DHT22;7285;50.894;5.462;2022-12-07T12:42:01;6.70;17.20
14401;DHT22;7285;50.894;5.462;2022-12-07T12:44:43;6.70;99.90
14401;DHT22;7285;50.894;5.462;2022-12-07T12:47:51;6.60;90.90
14401;DHT22;7285;50.894;5.462;2022-12-07T12:50:23;6.70;99.90
14401;DHT22;7285;50.894;5.462;2022-12-07T12:53:03;6.70;26.40
14401;DHT22;7285;50.894;5.462;2022-12-07T12:56:09;6.70;99.90
14401;DHT22;7285;50.894;5.462;2022-12-07T12:58:42;6.70;99.90
14401;DHT22;7285;50.894;5.462;2022-12-07T13:01:44;6.80;99.90
14401;DHT22;7285;50.894;5.462;2022-12-07T13:04:47;6.80;1.00
14401;DHT22;7285;50.894;5.462;2022-12-07T13:10:37;6.80;23.70
14401;DHT22;7285;50.894;5.462;2022-12-07T13:13:35;6.90;1.00
14401;DHT22;7285;50.894;5.462;2022-12-07T13:22:38;7.10;1.00
14401;DHT22;7285;50.894;5.462;2022-12-07T13:25:10;7.00;1.00
14401;DHT22;7285;50.894;5.462;2022-12-07T13:27:41;6.90;99.90
14401;DHT22;7285;50.894;5.462;2022-12-07T13:30:14;7.00;99.90
14401;DHT22;7285;50.894;5.462;2022-12-07T13:32:42;6.90;99.90
14401;DHT22;7285;50.894;5.462;2022-12-07T13:35:31;6.80;1.00
14401;DHT22;7285;50.894;5.462;2022-12-07T13:37:59;6.80;1.00
14401;DHT22;7285;50.894;5.462;2022-12-07T13:40:26;6.70;1.00
14401;DHT22;7285;50.894;5.462;2022-12-07T13:43:03;6.60;1.00
14401;DHT22;7285;50.894;5.462;2022-12-07T13:45:32;6.60;67.80
14401;DHT22;7285;50.894;5.462;2022-12-07T13:48:30;6.60;2.70
14401;DHT22;7285;50.894;5.462;2022-12-07T13:51:00;6.40;1.00
14401;DHT22;7285;50.894;5.462;2022-12-07T13:53:28;6.50;54.40
14401;DHT22;7285;50.894;5.462;2022-12-07T13:55:56;6.50;41.90
14401;DHT22;7285;50.894;5.462;2022-12-07T13:58:25;6.50;99.90
14401;DHT22;7285;50.894;5.462;2022-12-07T14:00:53;6.70;1.00
14401;DHT22;7285;50.894;5.462;2022-12-07T14:03:31;6.80;1.00
14401;DHT22;7285;50.894;5.462;2022-12-07T14:06:22;6.90;99.90
14401;DHT22;7285;50.894;5.462;2022-12-07T14:08:51;7.00;99.90
14401;DHT22;7285;50.894;5.462;2022-12-07T14:11:32;7.00;99.90
14401;DHT22;7285;50.894;5.462;2022-12-07T14:14:02;7.00;43.80
14401;DHT22;7285;50.894;5.462;2022-12-07T14:16:32;6.90;37.80
14401;DHT22;7285;50.894;5.462;2022-12-07T14:19:02;6.90;1.00
14401;DHT22;7285;50.894;5.462;2022-12-07T14:21:30;6.80;1.00
14401;DHT22;7285;50.894;5.462;2022-12-07T14:24:19;6.80;1.00
14401;DHT22;7285;50.894;5.462;2022-12-07T14:26:47;6.70;1.00
14401;DHT22;7285;50.894;5.462;2022-12-07T14:29:37;6.60;1.00
14401;DHT22;7285;50.894;5.462;2022-12-07T14:32:22;6.50;1.00
14401;DHT22;7285;50.894;5.462;2022-12-07T14:34:58;6.40;99.90
14401;DHT22;7285;50.894;5.462;2022-12-07T14:37:26;6.30;99.90
14401;DHT22;7285;50.894;5.462;2022-12-07T14:39:54;6.30;1.00
14401;DHT22;7285;50.894;5.462;2022-12-07T14:42:22;6.30;1.00
14401;DHT22;7285;50.894;5.462;2022-12-07T14:44:52;6.20;1.00
14401;DHT22;7285;50.894;5.462;2022-12-07T14:47:18;6.10;1.00
14401;DHT22;7285;50.894;5.462;2022-12-07T14:49:45;6.00;56.70
14401;DHT22;7285;50.894;5.462;2022-12-07T14:52:15;6.00;99.90
14401;DHT22;7285;50.894;5.462;2022-12-07T14:54:42;6.00;1.00
14401;DHT22;7285;50.894;5.462;2022-12-07T14:57:10;5.90;1.00
14401;DHT22;7285;50.894;5.462;2022-12-07T14:59:37;5.90;99.90
14401;DHT22;7285;50.894;5.462;2022-12-07T15:02:06;5.80;99.90
14401;DHT22;7285;50.894;5.462;2022-12-07T15:04:33;5.80;99.90
14401;DHT22;7285;50.894;5.462;2022-12-07T15:07:02;5.80;1.00
14401;DHT22;7285;50.894;5.462;2022-12-07T15:09:29;5.70;1.00
14401;DHT22;7285;50.894;5.462;2022-12-07T15:11:56;5.80;1.00
14401;DHT22;7285;50.894;5.462;2022-12-07T15:14:23;5.80;1.00
14401;DHT22;7285;50.894;5.462;2022-12-07T15:16:50;5.70;99.90
14401;DHT22;7285;50.894;5.462;2022-12-07T15:19:20;5.70;99.90
14401;DHT22;7285;50.894;5.462;2022-12-07T15:21:48;5.70;99.90
14401;DHT22;7285;50.894;5.462;2022-12-07T15:24:15;5.70;99.90
14401;DHT22;7285;50.894;5.462;2022-12-07T15:26:42;5.60;1.00
14401;DHT22;7285;50.894;5.462;2022-12-07T15:29:10;5.60;99.90
14401;DHT22;7285;50.894;5.462;2022-12-07T15:31:37;5.60;99.90
14401;DHT22;7285;50.894;5.462;2022-12-07T15:34:04;5.60;99.90
14401;DHT22;7285;50.894;5.462;2022-12-07T15:36:33;5.60;99.90
14401;DHT22;7285;50.894;5.462;2022-12-07T15:39:00;5.50;99.90
14401;DHT22;7285;50.894;5.462;2022-12-07T15:41:27;5.50;1.00
14401;DHT22;7285;50.894;5.462;2022-12-07T15:43:54;5.50;1.00
14401;DHT22;7285;50.894;5.462;2022-12-07T15:46:40;5.50;1.00
14401;DHT22;7285;50.894;5.462;2022-12-07T15:49:11;5.50;1.00
14401;DHT22;7285;50.894;5.462;2022-12-07T15:51:40;5.40;1.00
14401;DHT22;7285;50.894;5.462;2022-12-07T15:54:07;5.40;1.00
14401;DHT22;7285;50.894;5.462;2022-12-07T15:56:35;5.40;99.90
14401;DHT22;7285;50.894;5.462;2022-12-07T15:59:02;5.40;99.90
14401;DHT22;7285;50.894;5.462;2022-12-07T16:01:29;5.40;1.00
14401;DHT22;7285;50.894;5.462;2022-12-07T16:03:57;5.40;1.00
14401;DHT22;7285;50.894;5.462;2022-12-07T16:06:24;5.40;1.00
14401;DHT22;7285;50.894;5.462;2022-12-07T16:08:53;5.30;99.90
14401;DHT22;7285;50.894;5.462;2022-12-07T16:11:21;5.30;99.90
14401;DHT22;7285;50.894;5.462;2022-12-07T16:13:47;5.40;1.00
14401;DHT22;7285;50.894;5.462;2022-12-07T16:16:16;5.40;1.00
14401;DHT22;7285;50.894;5.462;2022-12-07T16:18:44;5.40;1.00
14401;DHT22;7285;50.894;5.462;2022-12-07T16:21:12;5.40;99.90
14401;DHT22;7285;50.894;5.462;2022-12-07T16:23:39;5.40;99.90
14401;DHT22;7285;50.894;5.462;2022-12-07T16:26:10;5.30;99.90
14401;DHT22;7285;50.894;5.462;2022-12-07T16:28:37;5.30;99.90
14401;DHT22;7285;50.894;5.462;2022-12-07T16:31:05;5.30;1.00
14401;DHT22;7285;50.894;5.462;2022-12-07T16:33:34;5.30;1.00
14401;DHT22;7285;50.894;5.462;2022-12-07T16:36:02;5.20;1.00
14401;DHT22;7285;50.894;5.462;2022-12-07T16:38:29;5.10;1.00
14401;DHT22;7285;50.894;5.462;2022-12-07T16:40:56;5.10;1.00
14401;DHT22;7285;50.894;5.462;2022-12-07T16:43:24;5.00;1.00